Flight Track Log - Related Links

Times and Time Zones

All times are in EDT time to prevent confusion due to time zone crossing. See the EJA947 flight status page for this flight to view local times or setup timezone preferences in your user account.

Time Position Orientation Groundspeed Altitude Reporting Facility
EDT Latitude Longitude Course Direction KTS MPH feet Rate Location/Type
Mon 03:32:03 PM 33.6500 -117.8833 192° South 173 199 1,600  Level Southern California TRACON
Mon 03:33:03 PM 33.5833 -117.9000 192° South 241 277 5,600 3,700 Climbing Southern California TRACON
Mon 03:34:03 PM 33.5167 -117.9000 180° South 301 346 9,000 2,750 Climbing Southern California TRACON
Mon 03:35:03 PM 33.4500 -117.8167 134° Southeast 351 404 11,100 1,000 Climbing Southern California TRACON
Mon 03:36:03 PM 33.3667 -117.7333 140° Southeast 431 496 11,000 -50 Descending Southern California TRACON
Mon 03:37:03 PM 33.2833 -117.6167 130° Southeast 445 512 11,000  Level Southern California TRACON
Mon 03:38:09 PM 33.1667 -117.5333 149° Southeast 434 499 11,000  Level Southern California TRACON
Mon 03:39:21 PM 33.0597 -117.4414 144° Southeast 433 498 11,000 -50 Level Los Angeles Center
Mon 03:40:09 PM 32.9667 -117.3667 146° Southeast 381 438 10,900 -765 Descending Southern California TRACON
Mon 03:41:03 PM 32.9167 -117.3000 132° Southeast 337 388 9,700 -1,500 Descending Southern California TRACON
Mon 03:42:09 PM 32.8500 -117.2000 128° Southeast 320 368 7,900 -1,643 Descending Southern California TRACON
Mon 03:42:27 PM 32.8394 -117.1839 128° Southeast 322 371 7,400 -1,500 Descending Los Angeles Center
Mon 03:43:29 PM 32.7900 -117.1161 131° Southeast 309 356 5,900 -1,412 Descending Los Angeles Center
Mon 03:44:09 PM 32.7500 -117.0667 134° Southeast 276 318 5,000 -1,213 Descending Southern California TRACON
Mon 03:45:03 PM 32.7333 -116.9833 103° East 251 289 4,000 -500 Descending Southern California TRACON
Mon 03:46:09 PM 32.7000 -116.9667 157° South 203 234 4,000 -524 Level Southern California TRACON
Mon 03:47:09 PM 32.6833 -117.0167 248° West 162 186 2,900 -1,000 Descending Southern California TRACON
Mon 03:48:09 PM 32.7000 -117.0667 292° West 163 188 2,000 -800 Descending Southern California TRACON
Mon 03:49:09 PM 32.7167 -117.1167 292° West 142 163 1,300 -645 Descending Southern California TRACON
Mon 03:49:42 PM 32.7194 -117.1333 281° West 151 174 1,000 -632 Descending Los Angeles Center
Mon 03:50:44 PM 32.7317 -117.1775 288° West 142 163 300 -677 Descending Los Angeles Center

Login

Don't have an account? Register now (free) for customized features, flight alerts, and more!